sensor_id;sensor_type;location;lat;lon;timestamp;pressure;altitude;pressure_sealevel;temperature
70050;BMP180;57391;51.306;22.680;2023-04-09T00:01:08;100313.20;;;9.36
70050;BMP180;57391;51.306;22.680;2023-04-09T00:03:37;100316.20;;;9.40
70050;BMP180;57391;51.306;22.680;2023-04-09T00:06:05;100314.60;;;9.38
70050;BMP180;57391;51.306;22.680;2023-04-09T00:08:32;100317.20;;;9.40
70050;BMP180;57391;51.306;22.680;2023-04-09T00:10:59;100308.00;;;9.40
70050;BMP180;57391;51.306;22.680;2023-04-09T00:13:27;100310.40;;;9.40
70050;BMP180;57391;51.306;22.680;2023-04-09T00:15:54;100308.80;;;9.40
70050;BMP180;57391;51.306;22.680;2023-04-09T00:18:21;100307.00;;;9.40
70050;BMP180;57391;51.306;22.680;2023-04-09T00:20:48;100306.80;;;9.38
70050;BMP180;57391;51.306;22.680;2023-04-09T00:23:16;100309.00;;;9.38
70050;BMP180;57391;51.306;22.680;2023-04-09T00:25:43;100306.80;;;9.38
70050;BMP180;57391;51.306;22.680;2023-04-09T00:28:11;100311.60;;;9.34
70050;BMP180;57391;51.306;22.680;2023-04-09T00:30:37;100309.40;;;9.32
70050;BMP180;57391;51.306;22.680;2023-04-09T00:33:04;100311.20;;;9.30
70050;BMP180;57391;51.306;22.680;2023-04-09T00:35:31;100311.20;;;9.30
70050;BMP180;57391;51.306;22.680;2023-04-09T00:37:58;100315.00;;;9.26
70050;BMP180;57391;51.306;22.680;2023-04-09T00:40:26;100308.60;;;9.20
70050;BMP180;57391;51.306;22.680;2023-04-09T00:42:53;100313.20;;;9.20
70050;BMP180;57391;51.306;22.680;2023-04-09T00:45:20;100314.40;;;9.10
70050;BMP180;57391;51.306;22.680;2023-04-09T00:47:47;100311.80;;;9.10
70050;BMP180;57391;51.306;22.680;2023-04-09T00:50:15;100310.60;;;9.10
70050;BMP180;57391;51.306;22.680;2023-04-09T00:52:43;100309.40;;;9.06
70050;BMP180;57391;51.306;22.680;2023-04-09T00:55:11;100307.40;;;9.00
70050;BMP180;57391;51.306;22.680;2023-04-09T00:57:39;100303.40;;;9.00
70050;BMP180;57391;51.306;22.680;2023-04-09T01:00:07;100301.40;;;9.00
70050;BMP180;57391;51.306;22.680;2023-04-09T01:02:34;100300.00;;;9.00
70050;BMP180;57391;51.306;22.680;2023-04-09T01:05:02;100307.00;;;9.00
70050;BMP180;57391;51.306;22.680;2023-04-09T01:07:38;100314.40;;;9.00
70050;BMP180;57391;51.306;22.680;2023-04-09T01:10:23;100312.60;;;9.00
70050;BMP180;57391;51.306;22.680;2023-04-09T01:13:06;100311.60;;;9.00
70050;BMP180;57391;51.306;22.680;2023-04-09T01:15:46;100312.60;;;8.90
70050;BMP180;57391;51.306;22.680;2023-04-09T01:18:30;100311.40;;;8.90
70050;BMP180;57391;51.306;22.680;2023-04-09T01:21:04;100310.20;;;8.80
70050;BMP180;57391;51.306;22.680;2023-04-09T01:23:56;100317.60;;;8.80
70050;BMP180;57391;51.306;22.680;2023-04-09T01:29:40;100315.60;;;8.80
70050;BMP180;57391;51.306;22.680;2023-04-09T01:32:15;100324.20;;;8.80
70050;BMP180;57391;51.306;22.680;2023-04-09T01:34:45;100320.80;;;8.80
70050;BMP180;57391;51.306;22.680;2023-04-09T01:37:14;100319.20;;;8.80
70050;BMP180;57391;51.306;22.680;2023-04-09T01:39:43;100324.60;;;8.80
70050;BMP180;57391;51.306;22.680;2023-04-09T01:42:11;100322.00;;;8.80
70050;BMP180;57391;51.306;22.680;2023-04-09T01:44:40;100319.80;;;8.80
70050;BMP180;57391;51.306;22.680;2023-04-09T01:47:08;100315.00;;;8.80
70050;BMP180;57391;51.306;22.680;2023-04-09T01:49:39;100316.40;;;8.80
70050;BMP180;57391;51.306;22.680;2023-04-09T01:52:09;100322.20;;;8.80
70050;BMP180;57391;51.306;22.680;2023-04-09T01:54:36;100321.00;;;8.80
70050;BMP180;57391;51.306;22.680;2023-04-09T01:57:03;100316.60;;;8.80
70050;BMP180;57391;51.306;22.680;2023-04-09T01:59:30;100319.40;;;8.80
70050;BMP180;57391;51.306;22.680;2023-04-09T02:02:21;100317.80;;;8.80
70050;BMP180;57391;51.306;22.680;2023-04-09T02:04:54;100325.20;;;8.80
70050;BMP180;57391;51.306;22.680;2023-04-09T02:07:36;100321.60;;;8.80
70050;BMP180;57391;51.306;22.680;2023-04-09T02:10:07;100320.20;;;8.80
70050;BMP180;57391;51.306;22.680;2023-04-09T02:12:39;100325.00;;;8.80
70050;BMP180;57391;51.306;22.680;2023-04-09T02:15:09;100323.80;;;8.80
70050;BMP180;57391;51.306;22.680;2023-04-09T02:17:37;100321.60;;;8.84
70050;BMP180;57391;51.306;22.680;2023-04-09T02:20:05;100317.40;;;8.90
70050;BMP180;57391;51.306;22.680;2023-04-09T02:22:33;100309.00;;;8.82
70050;BMP180;57391;51.306;22.680;2023-04-09T02:25:00;100307.20;;;8.80
70050;BMP180;57391;51.306;22.680;2023-04-09T02:27:27;100309.60;;;8.80
70050;BMP180;57391;51.306;22.680;2023-04-09T02:29:54;100301.20;;;8.70
70050;BMP180;57391;51.306;22.680;2023-04-09T02:32:21;100297.00;;;8.70
70050;BMP180;57391;51.306;22.680;2023-04-09T02:34:48;100301.00;;;8.70
70050;BMP180;57391;51.306;22.680;2023-04-09T02:37:15;100301.00;;;8.70
70050;BMP180;57391;51.306;22.680;2023-04-09T02:39:43;100295.00;;;8.70
70050;BMP180;57391;51.306;22.680;2023-04-09T02:42:11;100297.00;;;8.70
70050;BMP180;57391;51.306;22.680;2023-04-09T02:44:38;100296.20;;;8.70
70050;BMP180;57391;51.306;22.680;2023-04-09T02:47:05;100297.40;;;8.70
70050;BMP180;57391;51.306;22.680;2023-04-09T02:49:32;100292.40;;;8.68
70050;BMP180;57391;51.306;22.680;2023-04-09T02:51:59;100293.40;;;8.60
70050;BMP180;57391;51.306;22.680;2023-04-09T02:54:26;100298.80;;;8.60
70050;BMP180;57391;51.306;22.680;2023-04-09T02:56:53;100299.40;;;8.62
70050;BMP180;57391;51.306;22.680;2023-04-09T02:59:20;100298.60;;;8.70
70050;BMP180;57391;51.306;22.680;2023-04-09T03:01:47;100296.80;;;8.66
70050;BMP180;57391;51.306;22.680;2023-04-09T03:04:15;100298.00;;;8.70
70050;BMP180;57391;51.306;22.680;2023-04-09T03:06:42;100291.20;;;8.70
70050;BMP180;57391;51.306;22.680;2023-04-09T03:09:09;100292.40;;;8.70
70050;BMP180;57391;51.306;22.680;2023-04-09T03:11:36;100295.40;;;8.70
70050;BMP180;57391;51.306;22.680;2023-04-09T03:14:03;100295.20;;;8.70
70050;BMP180;57391;51.306;22.680;2023-04-09T03:16:30;100293.00;;;8.68
70050;BMP180;57391;51.306;22.680;2023-04-09T03:18:57;100293.80;;;8.64
70050;BMP180;57391;51.306;22.680;2023-04-09T03:21:24;100293.60;;;8.60
70050;BMP180;57391;51.306;22.680;2023-04-09T03:23:52;100291.00;;;8.60
70050;BMP180;57391;51.306;22.680;2023-04-09T03:26:19;100290.00;;;8.60
70050;BMP180;57391;51.306;22.680;2023-04-09T03:28:49;100289.40;;;8.60
70050;BMP180;57391;51.306;22.680;2023-04-09T03:31:16;100289.60;;;8.60
70050;BMP180;57391;51.306;22.680;2023-04-09T03:33:44;100291.80;;;8.60
70050;BMP180;57391;51.306;22.680;2023-04-09T03:36:12;100287.20;;;8.60
70050;BMP180;57391;51.306;22.680;2023-04-09T03:38:59;100288.60;;;8.60
70050;BMP180;57391;51.306;22.680;2023-04-09T03:41:38;100288.00;;;8.60
70050;BMP180;57391;51.306;22.680;2023-04-09T03:44:11;100285.80;;;8.60
70050;BMP180;57391;51.306;22.680;2023-04-09T03:46:58;100283.00;;;8.54
70050;BMP180;57391;51.306;22.680;2023-04-09T03:49:26;100284.20;;;8.50
70050;BMP180;57391;51.306;22.680;2023-04-09T03:51:55;100284.00;;;8.50
70050;BMP180;57391;51.306;22.680;2023-04-09T03:54:23;100285.80;;;8.50
70050;BMP180;57391;51.306;22.680;2023-04-09T03:56:50;100286.20;;;8.48
70050;BMP180;57391;51.306;22.680;2023-04-09T03:59:20;100280.40;;;8.44
70050;BMP180;57391;51.306;22.680;2023-04-09T04:01:48;100279.80;;;8.40
70050;BMP180;57391;51.306;22.680;2023-04-09T04:04:15;100279.80;;;8.40
70050;BMP180;57391;51.306;22.680;2023-04-09T04:06:53;100283.00;;;8.40
70050;BMP180;57391;51.306;22.680;2023-04-09T04:09:20;100284.00;;;8.40
70050;BMP180;57391;51.306;22.680;2023-04-09T04:11:52;100285.60;;;8.40
70050;BMP180;57391;51.306;22.680;2023-04-09T04:14:19;100285.20;;;8.40
70050;BMP180;57391;51.306;22.680;2023-04-09T04:16:51;100286.20;;;8.40
70050;BMP180;57391;51.306;22.680;2023-04-09T04:19:19;100291.00;;;8.40
70050;BMP180;57391;51.306;22.680;2023-04-09T04:21:48;100292.00;;;8.40
70050;BMP180;57391;51.306;22.680;2023-04-09T04:24:15;100295.20;;;8.50
70050;BMP180;57391;51.306;22.680;2023-04-09T04:26:42;100295.00;;;8.50
70050;BMP180;57391;51.306;22.680;2023-04-09T04:29:12;100296.40;;;8.58
70050;BMP180;57391;51.306;22.680;2023-04-09T04:32:00;100301.20;;;8.60
70050;BMP180;57391;51.306;22.680;2023-04-09T04:34:31;100304.40;;;8.60
70050;BMP180;57391;51.306;22.680;2023-04-09T04:37:03;100306.40;;;8.70
70050;BMP180;57391;51.306;22.680;2023-04-09T04:39:31;100305.60;;;8.60
70050;BMP180;57391;51.306;22.680;2023-04-09T04:42:11;100310.80;;;8.60
70050;BMP180;57391;51.306;22.680;2023-04-09T04:44:38;100311.60;;;8.60
70050;BMP180;57391;51.306;22.680;2023-04-09T04:47:28;100312.00;;;8.60
70050;BMP180;57391;51.306;22.680;2023-04-09T04:49:58;100314.40;;;8.60
70050;BMP180;57391;51.306;22.680;2023-04-09T04:52:26;100315.60;;;8.62
70050;BMP180;57391;51.306;22.680;2023-04-09T04:54:54;100320.00;;;8.70
70050;BMP180;57391;51.306;22.680;2023-04-09T04:57:22;100324.20;;;8.70
70050;BMP180;57391;51.306;22.680;2023-04-09T04:59:50;100326.40;;;8.70
70050;BMP180;57391;51.306;22.680;2023-04-09T05:02:17;100334.20;;;8.76
70050;BMP180;57391;51.306;22.680;2023-04-09T05:05:05;100326.80;;;8.96
70050;BMP180;57391;51.306;22.680;2023-04-09T05:07:39;100324.60;;;9.20
70050;BMP180;57391;51.306;22.680;2023-04-09T05:10:07;100328.60;;;9.30
70050;BMP180;57391;51.306;22.680;2023-04-09T05:12:37;100330.80;;;9.42
70050;BMP180;57391;51.306;22.680;2023-04-09T05:15:06;100327.40;;;9.56
70050;BMP180;57391;51.306;22.680;2023-04-09T05:17:33;100332.60;;;9.70
70050;BMP180;57391;51.306;22.680;2023-04-09T05:20:00;100330.60;;;9.82
70050;BMP180;57391;51.306;22.680;2023-04-09T05:22:36;100331.80;;;10.00
70050;BMP180;57391;51.306;22.680;2023-04-09T05:25:05;100337.80;;;10.26
70050;BMP180;57391;51.306;22.680;2023-04-09T05:27:36;100335.80;;;10.50
70050;BMP180;57391;51.306;22.680;2023-04-09T05:30:05;100334.00;;;11.34
70050;BMP180;57391;51.306;22.680;2023-04-09T05:32:33;100340.40;;;12.42
70050;BMP180;57391;51.306;22.680;2023-04-09T05:35:01;100348.00;;;12.90
70050;BMP180;57391;51.306;22.680;2023-04-09T05:37:29;100351.60;;;13.02
70050;BMP180;57391;51.306;22.680;2023-04-09T05:39:56;100355.60;;;13.20
70050;BMP180;57391;51.306;22.680;2023-04-09T05:42:24;100360.60;;;13.40
70050;BMP180;57391;51.306;22.680;2023-04-09T05:45:02;100360.60;;;13.60
70050;BMP180;57391;51.306;22.680;2023-04-09T05:47:29;100365.20;;;13.70
70050;BMP180;57391;51.306;22.680;2023-04-09T05:50:01;100364.60;;;13.64
70050;BMP180;57391;51.306;22.680;2023-04-09T05:52:29;100363.80;;;13.60
70050;BMP180;57391;51.306;22.680;2023-04-09T05:54:56;100363.60;;;13.60
70050;BMP180;57391;51.306;22.680;2023-04-09T05:57:28;100361.40;;;13.56
70050;BMP180;57391;51.306;22.680;2023-04-09T05:59:59;100365.00;;;13.58
70050;BMP180;57391;51.306;22.680;2023-04-09T06:02:27;100367.20;;;13.64
70050;BMP180;57391;51.306;22.680;2023-04-09T06:04:54;100365.40;;;13.70
70050;BMP180;57391;51.306;22.680;2023-04-09T06:07:22;100364.80;;;13.70
70050;BMP180;57391;51.306;22.680;2023-04-09T06:09:48;100364.80;;;13.68
70050;BMP180;57391;51.306;22.680;2023-04-09T06:12:15;100371.60;;;13.70
70050;BMP180;57391;51.306;22.680;2023-04-09T06:14:43;100367.20;;;13.70
70050;BMP180;57391;51.306;22.680;2023-04-09T06:17:11;100367.60;;;13.70
70050;BMP180;57391;51.306;22.680;2023-04-09T06:19:38;100370.20;;;13.74
70050;BMP180;57391;51.306;22.680;2023-04-09T06:22:09;100368.80;;;13.88
70050;BMP180;57391;51.306;22.680;2023-04-09T06:24:36;100367.40;;;13.90
70050;BMP180;57391;51.306;22.680;2023-04-09T06:27:03;100372.60;;;13.96
70050;BMP180;57391;51.306;22.680;2023-04-09T06:29:31;100374.40;;;13.90
70050;BMP180;57391;51.306;22.680;2023-04-09T06:31:58;100377.40;;;13.90
70050;BMP180;57391;51.306;22.680;2023-04-09T06:34:25;100383.80;;;13.90
70050;BMP180;57391;51.306;22.680;2023-04-09T06:36:52;100383.60;;;13.90
70050;BMP180;57391;51.306;22.680;2023-04-09T06:39:19;100387.00;;;13.90
70050;BMP180;57391;51.306;22.680;2023-04-09T06:41:46;100387.00;;;13.82
70050;BMP180;57391;51.306;22.680;2023-04-09T06:44:36;100387.80;;;13.70
70050;BMP180;57391;51.306;22.680;2023-04-09T06:47:03;100393.60;;;13.62
70050;BMP180;57391;51.306;22.680;2023-04-09T06:49:30;100398.40;;;13.50
70050;BMP180;57391;51.306;22.680;2023-04-09T06:51:57;100398.40;;;13.40
70050;BMP180;57391;51.306;22.680;2023-04-09T06:54:24;100398.20;;;13.30
70050;BMP180;57391;51.306;22.680;2023-04-09T06:56:51;100395.00;;;13.20
70050;BMP180;57391;51.306;22.680;2023-04-09T06:59:18;100395.80;;;13.20
70050;BMP180;57391;51.306;22.680;2023-04-09T07:01:46;100395.40;;;13.20
70050;BMP180;57391;51.306;22.680;2023-04-09T07:04:14;100390.00;;;13.20
70050;BMP180;57391;51.306;22.680;2023-04-09T07:06:41;100389.40;;;13.30
70050;BMP180;57391;51.306;22.680;2023-04-09T07:09:08;100393.40;;;13.40
70050;BMP180;57391;51.306;22.680;2023-04-09T07:11:35;100392.00;;;13.50
70050;BMP180;57391;51.306;22.680;2023-04-09T07:14:02;100390.00;;;13.60
70050;BMP180;57391;51.306;22.680;2023-04-09T07:16:29;100393.60;;;13.70
70050;BMP180;57391;51.306;22.680;2023-04-09T07:18:56;100391.20;;;13.82
70050;BMP180;57391;51.306;22.680;2023-04-09T07:21:24;100396.40;;;14.00
70050;BMP180;57391;51.306;22.680;2023-04-09T07:23:52;100393.80;;;14.00
70050;BMP180;57391;51.306;22.680;2023-04-09T07:26:19;100396.40;;;14.10
70050;BMP180;57391;51.306;22.680;2023-04-09T07:28:46;100394.40;;;14.20
70050;BMP180;57391;51.306;22.680;2023-04-09T07:31:14;100393.00;;;14.36
70050;BMP180;57391;51.306;22.680;2023-04-09T07:33:41;100397.60;;;14.50
70050;BMP180;57391;51.306;22.680;2023-04-09T07:36:08;100402.40;;;14.60
70050;BMP180;57391;51.306;22.680;2023-04-09T07:38:35;100400.20;;;14.70
70050;BMP180;57391;51.306;22.680;2023-04-09T07:41:03;100400.80;;;14.80
70050;BMP180;57391;51.306;22.680;2023-04-09T07:43:30;100403.20;;;14.80
70050;BMP180;57391;51.306;22.680;2023-04-09T07:45:58;100407.20;;;14.90
70050;BMP180;57391;51.306;22.680;2023-04-09T07:48:25;100403.80;;;15.00
70050;BMP180;57391;51.306;22.680;2023-04-09T07:50:54;100404.00;;;15.20
70050;BMP180;57391;51.306;22.680;2023-04-09T07:53:21;100401.60;;;15.20
70050;BMP180;57391;51.306;22.680;2023-04-09T07:55:50;100405.40;;;15.20
70050;BMP180;57391;51.306;22.680;2023-04-09T07:58:17;100405.80;;;15.10
70050;BMP180;57391;51.306;22.680;2023-04-09T08:00:44;100409.40;;;15.10
70050;BMP180;57391;51.306;22.680;2023-04-09T08:03:12;100406.00;;;15.10
70050;BMP180;57391;51.306;22.680;2023-04-09T08:05:40;100408.40;;;15.20
70050;BMP180;57391;51.306;22.680;2023-04-09T08:08:07;100408.20;;;15.34
70050;BMP180;57391;51.306;22.680;2023-04-09T08:10:35;100410.20;;;15.42
70050;BMP180;57391;51.306;22.680;2023-04-09T08:13:02;100410.20;;;15.50
70050;BMP180;57391;51.306;22.680;2023-04-09T08:15:30;100403.00;;;15.60
70050;BMP180;57391;51.306;22.680;2023-04-09T08:17:57;100406.40;;;15.70
70050;BMP180;57391;51.306;22.680;2023-04-09T08:20:24;100404.80;;;15.70
70050;BMP180;57391;51.306;22.680;2023-04-09T08:22:51;100404.80;;;15.78
70050;BMP180;57391;51.306;22.680;2023-04-09T08:25:19;100406.20;;;15.74
70050;BMP180;57391;51.306;22.680;2023-04-09T08:27:46;100407.80;;;15.60
70050;BMP180;57391;51.306;22.680;2023-04-09T08:30:13;100408.80;;;15.50
70050;BMP180;57391;51.306;22.680;2023-04-09T08:32:40;100413.40;;;15.40
70050;BMP180;57391;51.306;22.680;2023-04-09T08:35:10;100408.80;;;15.30
70050;BMP180;57391;51.306;22.680;2023-04-09T08:37:37;100408.80;;;15.18
70050;BMP180;57391;51.306;22.680;2023-04-09T08:40:06;100411.80;;;15.10
70050;BMP180;57391;51.306;22.680;2023-04-09T08:42:35;100415.00;;;15.08
70050;BMP180;57391;51.306;22.680;2023-04-09T08:45:06;100413.80;;;15.10
70050;BMP180;57391;51.306;22.680;2023-04-09T08:47:36;100413.20;;;15.12
70050;BMP180;57391;51.306;22.680;2023-04-09T08:50:04;100414.40;;;15.10
70050;BMP180;57391;51.306;22.680;2023-04-09T08:52:32;100416.80;;;15.10
70050;BMP180;57391;51.306;22.680;2023-04-09T08:55:00;100413.00;;;15.10
70050;BMP180;57391;51.306;22.680;2023-04-09T08:57:27;100418.00;;;15.10
70050;BMP180;57391;51.306;22.680;2023-04-09T08:59:54;100416.80;;;15.00
70050;BMP180;57391;51.306;22.680;2023-04-09T09:02:21;100415.80;;;15.00
70050;BMP180;57391;51.306;22.680;2023-04-09T09:04:49;100417.20;;;15.06
70050;BMP180;57391;51.306;22.680;2023-04-09T09:07:19;100417.80;;;15.00
70050;BMP180;57391;51.306;22.680;2023-04-09T09:09:55;100417.20;;;15.10
70050;BMP180;57391;51.306;22.680;2023-04-09T09:12:40;100415.00;;;15.10
70050;BMP180;57391;51.306;22.680;2023-04-09T09:15:28;100417.80;;;15.20
70050;BMP180;57391;51.306;22.680;2023-04-09T09:17:58;100418.40;;;15.30
70050;BMP180;57391;51.306;22.680;2023-04-09T09:20:25;100414.80;;;15.30
70050;BMP180;57391;51.306;22.680;2023-04-09T09:22:55;100422.20;;;15.30
70050;BMP180;57391;51.306;22.680;2023-04-09T09:25:23;100421.20;;;15.40
70050;BMP180;57391;51.306;22.680;2023-04-09T09:27:52;100425.20;;;15.46
70050;BMP180;57391;51.306;22.680;2023-04-09T09:30:21;100423.60;;;15.50
70050;BMP180;57391;51.306;22.680;2023-04-09T09:33:04;100426.40;;;15.50
70050;BMP180;57391;51.306;22.680;2023-04-09T09:35:50;100424.00;;;15.60
70050;BMP180;57391;51.306;22.680;2023-04-09T09:38:17;100428.40;;;15.60
70050;BMP180;57391;51.306;22.680;2023-04-09T09:40:45;100426.60;;;15.60
70050;BMP180;57391;51.306;22.680;2023-04-09T09:43:13;100425.20;;;15.50
70050;BMP180;57391;51.306;22.680;2023-04-09T09:45:40;100425.80;;;15.42
70050;BMP180;57391;51.306;22.680;2023-04-09T09:48:10;100425.80;;;15.40
70050;BMP180;57391;51.306;22.680;2023-04-09T09:50:40;100420.40;;;15.32
70050;BMP180;57391;51.306;22.680;2023-04-09T09:53:10;100426.80;;;15.34
70050;BMP180;57391;51.306;22.680;2023-04-09T09:55:44;100423.00;;;15.38
70050;BMP180;57391;51.306;22.680;2023-04-09T09:58:18;100420.20;;;15.34
70050;BMP180;57391;51.306;22.680;2023-04-09T10:00:51;100420.20;;;15.40
70050;BMP180;57391;51.306;22.680;2023-04-09T10:03:24;100417.40;;;15.40
70050;BMP180;57391;51.306;22.680;2023-04-09T10:05:52;100416.20;;;15.48
70050;BMP180;57391;51.306;22.680;2023-04-09T10:08:22;100415.60;;;15.50
70050;BMP180;57391;51.306;22.680;2023-04-09T10:10:51;100412.60;;;15.60
70050;BMP180;57391;51.306;22.680;2023-04-09T10:13:33;100404.60;;;15.70
70050;BMP180;57391;51.306;22.680;2023-04-09T10:16:01;100406.20;;;15.80
70050;BMP180;57391;51.306;22.680;2023-04-09T10:18:29;100402.20;;;15.90
70050;BMP180;57391;51.306;22.680;2023-04-09T10:22:06;100404.40;;;16.00
70050;BMP180;57391;51.306;22.680;2023-04-09T10:24:07;100400.80;;;16.10
70050;BMP180;57391;51.306;22.680;2023-04-09T10:26:40;100397.60;;;16.20
70050;BMP180;57391;51.306;22.680;2023-04-09T10:29:11;100403.60;;;16.30
70050;BMP180;57391;51.306;22.680;2023-04-09T10:34:26;100405.20;;;16.40
70050;BMP180;57391;51.306;22.680;2023-04-09T10:36:58;100407.40;;;16.50
70050;BMP180;57391;51.306;22.680;2023-04-09T10:39:31;100406.00;;;16.50
70050;BMP180;57391;51.306;22.680;2023-04-09T10:42:07;100406.20;;;16.60
70050;BMP180;57391;51.306;22.680;2023-04-09T10:44:38;100399.80;;;16.70
70050;BMP180;57391;51.306;22.680;2023-04-09T10:47:08;100403.20;;;16.86
70050;BMP180;57391;51.306;22.680;2023-04-09T10:49:40;100404.40;;;16.90
70050;BMP180;57391;51.306;22.680;2023-04-09T10:52:10;100404.00;;;17.00
70050;BMP180;57391;51.306;22.680;2023-04-09T10:54:44;100402.20;;;16.90
70050;BMP180;57391;51.306;22.680;2023-04-09T10:57:16;100401.40;;;16.80
70050;BMP180;57391;51.306;22.680;2023-04-09T10:59:49;100404.40;;;16.80
70050;BMP180;57391;51.306;22.680;2023-04-09T11:07:57;100398.20;;;16.70
70050;BMP180;57391;51.306;22.680;2023-04-09T11:10:28;100396.60;;;16.70
70050;BMP180;57391;51.306;22.680;2023-04-09T11:12:54;100401.00;;;16.60
70050;BMP180;57391;51.306;22.680;2023-04-09T11:15:22;100396.20;;;16.50
70050;BMP180;57391;51.306;22.680;2023-04-09T11:17:50;100390.80;;;16.40
70050;BMP180;57391;51.306;22.680;2023-04-09T11:20:22;100389.20;;;16.40
70050;BMP180;57391;51.306;22.680;2023-04-09T11:22:52;100393.20;;;16.40
70050;BMP180;57391;51.306;22.680;2023-04-09T11:25:28;100391.40;;;16.50
70050;BMP180;57391;51.306;22.680;2023-04-09T11:27:57;100386.40;;;16.50
70050;BMP180;57391;51.306;22.680;2023-04-09T11:30:25;100386.20;;;16.50
70050;BMP180;57391;51.306;22.680;2023-04-09T11:32:52;100390.20;;;16.48
70050;BMP180;57391;51.306;22.680;2023-04-09T11:35:21;100385.20;;;16.30
70050;BMP180;57391;51.306;22.680;2023-04-09T11:37:49;100386.40;;;16.30
70050;BMP180;57391;51.306;22.680;2023-04-09T11:40:23;100384.20;;;16.30
70050;BMP180;57391;51.306;22.680;2023-04-09T11:42:54;100381.80;;;16.32
70050;BMP180;57391;51.306;22.680;2023-04-09T11:45:29;100382.80;;;16.40
70050;BMP180;57391;51.306;22.680;2023-04-09T11:47:57;100386.00;;;16.30
70050;BMP180;57391;51.306;22.680;2023-04-09T11:50:25;100382.40;;;16.12
70050;BMP180;57391;51.306;22.680;2023-04-09T11:52:52;100380.40;;;16.10
70050;BMP180;57391;51.306;22.680;2023-04-09T11:55:28;100382.60;;;16.00
70050;BMP180;57391;51.306;22.680;2023-04-09T11:57:59;100382.00;;;15.90
70050;BMP180;57391;51.306;22.680;2023-04-09T12:00:28;100384.40;;;15.80
70050;BMP180;57391;51.306;22.680;2023-04-09T12:03:02;100380.40;;;15.80
70050;BMP180;57391;51.306;22.680;2023-04-09T12:05:32;100381.80;;;15.90
70050;BMP180;57391;51.306;22.680;2023-04-09T12:08:07;100383.20;;;15.98
70050;BMP180;57391;51.306;22.680;2023-04-09T12:10:37;100385.00;;;16.00
70050;BMP180;57391;51.306;22.680;2023-04-09T12:13:08;100384.60;;;15.98
70050;BMP180;57391;51.306;22.680;2023-04-09T12:15:41;100383.20;;;15.98
70050;BMP180;57391;51.306;22.680;2023-04-09T12:18:11;100383.40;;;16.00
70050;BMP180;57391;51.306;22.680;2023-04-09T12:20:42;100381.40;;;16.00
70050;BMP180;57391;51.306;22.680;2023-04-09T12:23:12;100380.40;;;16.04
70050;BMP180;57391;51.306;22.680;2023-04-09T12:25:43;100379.00;;;16.00
70050;BMP180;57391;51.306;22.680;2023-04-09T12:28:13;100382.00;;;15.90
70050;BMP180;57391;51.306;22.680;2023-04-09T12:30:45;100380.60;;;15.82
70050;BMP180;57391;51.306;22.680;2023-04-09T12:33:12;100375.80;;;15.80
70050;BMP180;57391;51.306;22.680;2023-04-09T12:35:39;100377.80;;;15.70
70050;BMP180;57391;51.306;22.680;2023-04-09T12:38:06;100377.20;;;15.70
70050;BMP180;57391;51.306;22.680;2023-04-09T12:40:34;100372.60;;;15.70
70050;BMP180;57391;51.306;22.680;2023-04-09T12:43:21;100371.80;;;15.70
70050;BMP180;57391;51.306;22.680;2023-04-09T12:45:48;100371.40;;;15.70
70050;BMP180;57391;51.306;22.680;2023-04-09T12:48:15;100374.60;;;15.70
70050;BMP180;57391;51.306;22.680;2023-04-09T12:50:43;100375.20;;;15.70
70050;BMP180;57391;51.306;22.680;2023-04-09T12:53:10;100374.80;;;15.70
70050;BMP180;57391;51.306;22.680;2023-04-09T12:55:37;100369.80;;;15.78
70050;BMP180;57391;51.306;22.680;2023-04-09T12:58:05;100369.00;;;15.80
70050;BMP180;57391;51.306;22.680;2023-04-09T13:00:32;100370.40;;;15.80
70050;BMP180;57391;51.306;22.680;2023-04-09T13:02:59;100367.00;;;15.80
70050;BMP180;57391;51.306;22.680;2023-04-09T13:05:27;100362.00;;;15.80
70050;BMP180;57391;51.306;22.680;2023-04-09T13:07:54;100361.40;;;15.80
70050;BMP180;57391;51.306;22.680;2023-04-09T13:10:21;100362.20;;;15.70
70050;BMP180;57391;51.306;22.680;2023-04-09T13:12:48;100362.80;;;15.70
70050;BMP180;57391;51.306;22.680;2023-04-09T13:15:16;100362.20;;;15.60
70050;BMP180;57391;51.306;22.680;2023-04-09T13:17:43;100357.60;;;15.60
70050;BMP180;57391;51.306;22.680;2023-04-09T13:20:10;100360.20;;;15.50
70050;BMP180;57391;51.306;22.680;2023-04-09T13:22:38;100357.80;;;15.50
70050;BMP180;57391;51.306;22.680;2023-04-09T13:25:05;100355.80;;;15.40
70050;BMP180;57391;51.306;22.680;2023-04-09T13:27:33;100354.80;;;15.40
70050;BMP180;57391;51.306;22.680;2023-04-09T13:30:00;100354.00;;;15.40
70050;BMP180;57391;51.306;22.680;2023-04-09T13:32:30;100352.40;;;15.42
70050;BMP180;57391;51.306;22.680;2023-04-09T13:34:56;100352.20;;;15.50
70050;BMP180;57391;51.306;22.680;2023-04-09T13:37:24;100353.80;;;15.50
70050;BMP180;57391;51.306;22.680;2023-04-09T13:39:52;100348.40;;;15.50
70050;BMP180;57391;51.306;22.680;2023-04-09T13:42:19;100352.80;;;15.50
70050;BMP180;57391;51.306;22.680;2023-04-09T13:44:46;100349.00;;;15.50
70050;BMP180;57391;51.306;22.680;2023-04-09T13:47:15;100348.20;;;15.48
70050;BMP180;57391;51.306;22.680;2023-04-09T13:49:42;100347.40;;;15.50
70050;BMP180;57391;51.306;22.680;2023-04-09T13:52:10;100346.00;;;15.50
70050;BMP180;57391;51.306;22.680;2023-04-09T13:54:37;100348.80;;;15.52
70050;BMP180;57391;51.306;22.680;2023-04-09T13:57:05;100346.60;;;15.60
70050;BMP180;57391;51.306;22.680;2023-04-09T13:59:32;100346.00;;;15.52
70050;BMP180;57391;51.306;22.680;2023-04-09T14:01:59;100348.00;;;15.50
70050;BMP180;57391;51.306;22.680;2023-04-09T14:04:27;100344.60;;;15.56
70050;BMP180;57391;51.306;22.680;2023-04-09T14:06:54;100342.80;;;15.60
70050;BMP180;57391;51.306;22.680;2023-04-09T14:09:21;100339.00;;;15.60
70050;BMP180;57391;51.306;22.680;2023-04-09T14:11:48;100337.80;;;15.60
70050;BMP180;57391;51.306;22.680;2023-04-09T14:14:15;100336.80;;;15.70